createdAt,value
2023-02-13T02:50:13.261Z,101213.84
2023-02-13T15:20:43.543Z,100994.16
2023-02-13T15:22:03.278Z,101004.97
2023-02-13T15:23:07.666Z,100999.75
2023-02-13T15:24:15.159Z,101001.59
2023-02-13T15:25:29.410Z,100993.84
2023-02-13T15:26:34.746Z,101007.06
2023-02-13T15:27:44.945Z,101002.72
2023-02-13T15:29:11.337Z,100993.19
2023-02-13T15:30:28.513Z,101001.25
2023-02-13T15:31:34.981Z,100995.22
2023-02-13T15:32:39.130Z,101007.75
2023-02-13T15:33:46.723Z,101004.22
2023-02-13T15:34:50.524Z,101020.09
2023-02-13T15:36:07.021Z,101023.53
2023-02-13T15:37:23.186Z,101019.13
2023-02-13T15:39:10.521Z,101021.69
2023-02-13T15:40:26.340Z,101020.38
2023-02-13T15:41:53.546Z,101017.66
2023-02-13T15:43:22.723Z,101019.47
2023-02-13T15:44:35.732Z,101024.91
2023-02-13T15:45:44.809Z,101024.22
2023-02-13T15:46:52.510Z,101027.59
2023-02-13T15:47:59.451Z,101025.06
2023-02-13T15:49:19.756Z,101022.38
2023-02-13T15:50:31.385Z,101023.19
2023-02-13T15:51:36.172Z,101025.72
2023-02-13T15:52:45.983Z,101026.72
2023-02-13T15:54:02.122Z,101035.47
2023-02-13T15:55:06.399Z,101034.56
2023-02-13T15:56:15.409Z,101037.09
2023-02-13T15:57:21.299Z,101037.25
2023-02-13T15:58:34.420Z,101029.53
2023-02-13T15:59:40.034Z,101025.88
2023-02-13T16:00:46.153Z,101025.84
2023-02-13T16:01:51.973Z,101024.91
2023-02-13T16:02:59.949Z,101019.69
2023-02-13T16:04:09.142Z,101023.41
2023-02-13T16:05:19.953Z,101013.91
2023-02-13T16:06:28.068Z,101018.38
2023-02-13T16:07:57.770Z,101025.50
2023-02-13T16:09:03.355Z,101023.72
2023-02-13T16:10:33.218Z,101028.97
2023-02-13T16:11:42.311Z,101030.84
2023-02-13T16:12:49.428Z,101028.31
2023-02-13T16:14:21.233Z,101034.34
2023-02-13T16:15:32.175Z,101046.78
2023-02-13T16:17:07.461Z,101042.38
2023-02-13T16:18:21.240Z,101041.41
2023-02-13T16:19:42.803Z,101042.47
2023-02-13T16:20:53.163Z,101043.25
2023-02-13T16:22:02.206Z,101031.06
2023-02-13T16:23:20.305Z,101035.63
2023-02-13T16:24:28.388Z,101039.31
2023-02-13T16:25:38.667Z,101042.94
2023-02-13T16:26:45.197Z,101047.31
2023-02-13T16:28:02.846Z,101049.88
2023-02-13T16:29:19.882Z,101044.81
2023-02-13T16:30:46.735Z,101046.88
2023-02-13T16:31:54.284Z,101046.88
2023-02-13T16:33:41.700Z,101046.03
2023-02-13T16:34:46.165Z,101050.50
2023-02-13T16:36:18.981Z,101049.72
2023-02-13T16:37:34.427Z,101048.75
2023-02-13T16:38:51.742Z,101052.22
2023-02-13T16:39:55.720Z,101049.72
2023-02-13T16:41:19.322Z,101052.31
2023-02-13T16:42:26.719Z,101047.91
2023-02-13T16:43:58.560Z,101055.03
2023-02-13T16:45:25.796Z,101060.16
2023-02-13T16:46:39.676Z,101073.34
2023-02-13T16:47:43.325Z,101078.81
2023-02-13T16:49:01.576Z,101076.25
2023-02-13T16:50:05.664Z,101062.16
2023-02-13T16:51:09.858Z,101059.56
2023-02-13T16:52:27.465Z,101065.09
2023-02-13T16:53:34.200Z,101054.69
2023-02-13T16:54:52.430Z,101064.41
2023-02-13T16:56:07.120Z,101054.69
2023-02-13T16:57:14.286Z,101047.66
2023-02-13T16:58:18.863Z,101036.22
2023-02-13T16:59:30.472Z,101030.09
2023-02-13T17:00:34.425Z,101032.69
2023-02-13T17:01:38.376Z,101033.59
2023-02-13T17:02:42.465Z,101026.63
2023-02-13T17:03:47.925Z,101024.16
2023-02-13T17:04:58.527Z,101032.19
2023-02-13T17:06:05.845Z,101027.91
2023-02-13T17:07:22.420Z,101020.91
2023-02-13T17:08:27.411Z,101027.09
2023-02-13T17:09:31.468Z,101028.75
2023-02-13T17:10:38.997Z,101037.66
2023-02-13T17:11:42.767Z,101027.06
2023-02-13T17:12:47.576Z,101031.47
2023-02-13T17:13:51.322Z,101022.69
2023-02-13T17:14:58.527Z,101026.19
2023-02-13T17:16:02.278Z,101024.38
2023-02-13T17:17:20.581Z,101019.88
2023-02-13T17:18:24.250Z,101008.41
2023-02-13T17:19:29.522Z,101010.19
2023-02-13T17:20:35.559Z,101010.13
2023-02-13T17:21:40.439Z,101010.13
2023-02-13T17:22:49.127Z,101012.72
2023-02-13T17:23:52.912Z,101013.53
2023-02-13T17:24:58.778Z,101006.59
2023-02-13T17:26:02.603Z,101003.94
2023-02-13T17:27:06.279Z,101004.22
2023-02-13T17:28:24.420Z,101016.59
2023-02-13T17:29:28.104Z,101026.19
2023-02-13T17:30:40.556Z,101025.28
2023-02-13T17:31:46.689Z,101018.13
2023-02-13T17:32:55.871Z,101016.31
2023-02-13T17:33:59.609Z,101012.09
2023-02-13T17:35:03.402Z,101018.13
2023-02-13T17:36:09.744Z,101012.00
2023-02-13T17:37:26.515Z,101024.38
2023-02-13T17:38:30.351Z,101026.06
2023-02-13T17:39:33.994Z,101013.72
2023-02-13T17:40:38.191Z,101015.63
2023-02-13T17:41:43.061Z,101017.28
2023-02-13T17:42:51.339Z,101022.56
2023-02-13T17:43:55.509Z,101021.59
2023-02-13T17:44:59.662Z,101028.59
2023-02-13T17:46:04.599Z,101026.72
2023-02-13T17:47:08.766Z,101027.81
2023-02-13T17:48:12.867Z,101026.03
2023-02-13T17:49:16.550Z,101027.81
2023-02-13T17:50:21.052Z,101026.88
2023-02-13T17:51:24.730Z,101023.38
2023-02-13T17:52:30.862Z,101025.19
2023-02-13T17:53:37.077Z,101020.06
2023-02-13T17:54:44.506Z,101026.97
2023-02-13T17:55:48.507Z,101015.50
2023-02-13T17:56:52.677Z,101021.63
2023-02-13T17:57:58.429Z,101034.00
2023-02-13T17:59:15.722Z,101034.81
2023-02-13T18:00:21.532Z,101033.19
2023-02-13T18:01:25.261Z,101039.44
2023-02-13T18:02:29.131Z,101035.09
2023-02-13T18:03:32.996Z,101041.19
2023-02-13T18:04:37.188Z,101044.66
2023-02-13T18:05:41.682Z,101053.56
2023-02-13T18:06:46.704Z,101064.03
2023-02-13T18:07:50.352Z,101057.03
2023-02-13T18:08:54.396Z,101061.44
2023-02-13T18:09:58.105Z,101054.44
2023-02-13T18:11:13.247Z,101044.75
2023-02-13T18:12:23.325Z,101052.00
2023-02-13T18:13:27.481Z,101050.09
2023-02-13T18:14:35.564Z,101049.38
2023-02-13T18:15:48.251Z,101032.63
2023-02-13T18:16:52.177Z,101026.50
2023-02-13T18:17:59.457Z,101029.00
2023-02-13T18:19:03.467Z,101028.91
2023-02-13T18:20:20.015Z,101040.34
2023-02-13T18:21:24.475Z,101038.75
2023-02-13T18:22:29.835Z,101047.47
2023-02-13T18:23:33.874Z,101051.03
2023-02-13T18:24:42.562Z,101054.47
2023-02-13T18:25:48.543Z,101064.28
2023-02-13T18:26:54.014Z,101058.06
2023-02-13T18:27:59.374Z,101051.84
2023-02-13T18:29:03.466Z,101058.78
2023-02-13T18:30:27.442Z,101052.69
2023-02-13T18:31:32.570Z,101056.16
2023-02-13T18:32:36.846Z,101055.38
2023-02-13T18:33:40.784Z,101054.38
2023-02-13T18:34:46.688Z,101066.72
2023-02-13T18:35:50.333Z,101071.84
2023-02-13T18:36:57.497Z,101072.94
2023-02-13T18:38:01.138Z,101068.38
2023-02-13T18:39:08.445Z,101072.75
2023-02-13T18:40:15.065Z,101066.50
2023-02-13T18:41:20.071Z,101065.75
2023-02-13T18:42:27.191Z,101066.56
2023-02-13T18:43:31.613Z,101066.81
2023-02-13T18:44:35.762Z,101065.88
2023-02-13T18:45:39.566Z,101072.81
2023-02-13T18:46:52.165Z,101080.75
2023-02-13T18:47:56.037Z,101073.66
2023-02-13T18:48:59.861Z,101079.94
2023-02-13T18:50:08.727Z,101075.63
2023-02-13T18:51:12.771Z,101065.88
2023-02-13T18:52:17.737Z,101065.06
2023-02-13T18:53:22.067Z,101071.19
2023-02-13T18:54:25.768Z,101082.53
2023-02-13T18:55:29.638Z,101086.16
2023-02-13T18:56:33.944Z,101087.81
2023-02-13T18:57:37.606Z,101092.19
2023-02-13T18:58:41.868Z,101096.72
2023-02-13T18:59:46.332Z,101086.00
2023-02-13T19:00:50.231Z,101084.22
2023-02-13T19:01:53.936Z,101090.31
2023-02-13T19:02:59.419Z,101091.31
2023-02-13T19:04:10.010Z,101095.69
2023-02-13T19:05:13.652Z,101088.63
2023-02-13T19:06:23.448Z,101091.09
2023-02-13T19:07:27.818Z,101092.97
2023-02-13T19:08:31.800Z,101108.78
2023-02-13T19:09:40.524Z,101111.41
2023-02-13T19:10:44.665Z,101117.47
2023-02-13T19:11:49.040Z,101119.25
2023-02-13T19:12:55.535Z,101119.25
2023-02-13T19:14:01.288Z,101121.03
2023-02-13T19:15:10.171Z,101116.59
2023-02-13T19:16:18.030Z,101121.03
2023-02-13T19:17:22.961Z,101119.25
2023-02-13T19:18:26.877Z,101119.19
2023-02-13T19:19:30.514Z,101119.19
2023-02-13T19:20:34.364Z,101125.41
2023-02-13T19:21:48.555Z,101119.28
2023-02-13T19:22:52.355Z,101123.53
2023-02-13T19:23:56.483Z,101122.63
2023-02-13T19:25:01.727Z,101126.09
2023-02-13T19:26:20.460Z,101112.84
2023-02-13T19:27:24.239Z,101125.25
2023-02-13T19:28:27.824Z,101122.53
2023-02-13T19:29:32.389Z,101124.31
2023-02-13T19:30:36.515Z,101119.00
2023-02-13T19:31:41.638Z,101111.97
2023-02-13T19:32:46.472Z,101110.25
2023-02-13T19:33:52.779Z,101109.44
2023-02-13T19:35:00.562Z,101114.88
2023-02-13T19:36:13.877Z,101108.56
2023-02-13T19:37:17.739Z,101102.69
2023-02-13T19:38:25.010Z,101100.78
2023-02-13T19:39:29.999Z,101107.09
2023-02-13T19:40:35.372Z,101108.97
2023-02-13T19:41:40.969Z,101111.59
2023-02-13T19:42:45.438Z,101108.19
2023-02-13T19:43:53.882Z,101102.84
2023-02-13T19:45:00.846Z,101113.44
2023-02-13T19:46:13.197Z,101115.19
2023-02-13T19:47:17.660Z,101109.03
2023-02-13T19:48:21.501Z,101119.56
2023-02-13T19:49:25.629Z,101118.59
2023-02-13T19:50:29.383Z,101116.78
2023-02-13T19:51:35.051Z,101116.66
2023-02-13T19:52:39.189Z,101114.13
2023-02-13T19:53:45.761Z,101122.84
2023-02-13T19:54:51.392Z,101121.16
2023-02-13T19:56:04.391Z,101120.28
2023-02-13T19:57:14.891Z,101121.31
2023-02-13T19:58:22.469Z,101121.22
2023-02-13T19:59:33.124Z,101121.09
2023-02-13T20:00:40.225Z,101129.81
2023-02-13T20:01:44.449Z,101128.03
2023-02-13T20:02:48.417Z,101124.53
2023-02-13T20:03:53.619Z,101121.16
2023-02-13T20:04:58.346Z,101122.88
2023-02-13T20:06:09.591Z,101122.88
2023-02-13T20:07:14.417Z,101131.63
2023-02-13T20:08:18.626Z,101133.44
2023-02-13T20:09:22.336Z,101133.31
2023-02-13T20:10:28.486Z,101133.38
2023-02-13T20:11:32.423Z,101142.13
2023-02-13T20:12:37.073Z,101145.50
2023-02-13T20:13:41.427Z,101136.84
2023-02-13T20:14:46.144Z,101144.03
2023-02-13T20:15:50.554Z,101141.38
2023-02-13T20:16:54.821Z,101156.28
2023-02-13T20:17:58.846Z,101143.00
2023-02-13T20:19:07.668Z,101154.41
2023-02-13T20:20:12.562Z,101154.31
2023-02-13T20:21:19.529Z,101143.78
2023-02-13T20:22:23.792Z,101149.88
2023-02-13T20:23:27.730Z,101149.00
2023-02-13T20:24:33.131Z,101147.25
2023-02-13T20:25:41.668Z,101143.84
2023-02-13T20:26:46.831Z,101135.88
2023-02-13T20:27:53.760Z,101143.72
2023-02-13T20:28:59.828Z,101143.66
2023-02-13T20:30:07.813Z,101147.97
2023-02-13T20:31:22.057Z,101137.47
2023-02-13T20:32:27.370Z,101142.69
2023-02-13T20:33:31.115Z,101149.66
2023-02-13T20:34:44.280Z,101145.25
2023-02-13T20:35:58.983Z,101145.41
2023-02-13T20:37:02.980Z,101156.13
2023-02-13T20:38:09.197Z,101153.41
2023-02-13T20:39:13.460Z,101153.38
2023-02-13T20:40:18.539Z,101154.41
2023-02-13T20:41:26.202Z,101155.22
2023-02-13T20:42:34.208Z,101151.00
2023-02-13T20:43:38.896Z,101146.59
2023-02-13T20:44:45.386Z,101151.00
2023-02-13T20:45:49.213Z,101155.31
2023-02-13T20:46:53.247Z,101151.03
2023-02-13T20:47:56.938Z,101150.91
2023-02-13T20:49:01.486Z,101151.06
2023-02-13T20:50:08.779Z,101148.31
2023-02-13T20:51:16.273Z,101143.13
2023-02-13T20:52:21.142Z,101140.56
2023-02-13T20:53:25.552Z,101135.28
2023-02-13T20:54:29.477Z,101141.38
2023-02-13T20:55:33.276Z,101137.03
2023-02-13T20:56:37.231Z,101145.84
2023-02-13T20:57:41.086Z,101139.63
2023-02-13T20:58:48.056Z,101133.34
2023-02-13T20:59:51.891Z,101131.56
2023-02-13T21:00:59.869Z,101120.94
2023-02-13T21:02:03.831Z,101120.13
2023-02-13T21:03:15.711Z,101133.47
2023-02-13T21:04:20.722Z,101129.06
2023-02-13T21:05:25.049Z,101129.94
2023-02-13T21:06:37.737Z,101122.06
2023-02-13T21:07:41.697Z,101130.88
2023-02-13T21:08:48.569Z,101124.88
2023-02-13T21:09:52.384Z,101125.59
2023-02-13T21:11:08.410Z,101123.88
2023-02-13T21:12:13.778Z,101125.78
2023-02-13T21:13:18.078Z,101124.00
2023-02-13T21:14:21.841Z,101115.09
2023-02-13T21:15:25.470Z,101121.22
2023-02-13T21:16:34.437Z,101122.22
2023-02-13T21:17:39.103Z,101131.88
2023-02-13T21:18:47.211Z,101127.47
2023-02-13T21:19:50.959Z,101128.38
2023-02-13T21:20:55.264Z,101125.84
2023-02-13T21:22:12.214Z,101125.78
2023-02-13T21:23:16.656Z,101119.72
2023-02-13T21:24:23.436Z,101110.03
2023-02-13T21:25:27.291Z,101114.31
2023-02-13T21:26:31.767Z,101114.28
2023-02-13T21:27:35.497Z,101116.06
2023-02-13T21:28:42.429Z,101113.56
2023-02-13T21:29:49.330Z,101111.75
2023-02-13T21:30:53.294Z,101116.16
2023-02-13T21:31:57.602Z,101112.53
2023-02-13T21:33:01.576Z,101115.09
2023-02-13T21:34:10.473Z,101116.00
2023-02-13T21:35:17.237Z,101112.41
2023-02-13T21:36:21.017Z,101114.28
2023-02-13T21:37:25.387Z,101122.16
2023-02-13T21:38:30.003Z,101117.78
2023-02-13T21:39:34.032Z,101110.81
2023-02-13T21:40:38.072Z,101115.19
2023-02-13T21:41:45.360Z,101115.19
2023-02-13T21:42:52.975Z,101116.00
2023-02-13T21:43:57.120Z,101112.47
2023-02-13T21:45:13.157Z,101117.72
2023-02-13T21:46:28.041Z,101113.41
2023-02-13T21:47:32.009Z,101118.84
2023-02-13T21:48:36.176Z,101114.41
2023-02-13T21:49:40.283Z,101117.81
2023-02-13T21:50:47.622Z,101121.31
2023-02-13T21:51:51.754Z,101122.19
2023-02-13T21:52:55.486Z,101121.28
2023-02-13T21:54:01.028Z,101116.06
2023-02-13T21:55:07.918Z,101121.44
2023-02-13T21:56:17.136Z,101116.00
2023-02-13T21:57:21.155Z,101119.47
2023-02-13T21:58:38.112Z,101116.78
2023-02-13T21:59:41.721Z,101122.16
2023-02-13T22:00:45.856Z,101117.78
2023-02-13T22:01:51.359Z,101121.22
2023-02-13T22:02:55.346Z,101117.66
2023-02-13T22:04:03.755Z,101109.78
2023-02-13T22:05:10.536Z,101114.19
2023-02-13T22:06:16.927Z,101117.66
2023-02-13T22:07:21.504Z,101122.97
2023-02-13T22:08:25.267Z,101117.66
2023-02-13T22:09:29.229Z,101125.56
2023-02-13T22:10:32.921Z,101119.56
2023-02-13T22:11:38.217Z,101121.41
2023-02-13T22:12:42.384Z,101118.72
2023-02-13T22:13:47.093Z,101119.59
2023-02-13T22:14:50.804Z,101122.22
2023-02-13T22:16:09.817Z,101115.22
2023-02-13T22:17:13.859Z,101113.44
2023-02-13T22:18:17.485Z,101126.59
2023-02-13T22:19:24.325Z,101121.31
2023-02-13T22:20:28.986Z,101125.69
2023-02-13T22:21:35.238Z,101128.41
2023-02-13T22:22:38.996Z,101119.59
2023-02-13T22:23:45.616Z,101116.22
2023-02-13T22:24:49.532Z,101120.63
2023-02-13T22:25:53.702Z,101118.84
2023-02-13T22:26:57.511Z,101123.38
2023-02-13T22:28:01.571Z,101117.25
2023-02-13T22:29:12.688Z,101116.25
2023-02-13T22:30:16.672Z,101124.94
2023-02-13T22:31:25.262Z,101121.53
2023-02-13T22:32:38.947Z,101117.94
2023-02-13T22:33:45.641Z,101114.44
2023-02-13T22:34:54.108Z,101117.94
2023-02-13T22:35:58.030Z,101123.13
2023-02-13T22:37:02.192Z,101108.00
2023-02-13T22:38:10.040Z,101110.50
2023-02-13T22:39:13.867Z,101103.28
2023-02-13T22:40:19.551Z,101106.69
2023-02-13T22:41:28.676Z,101103.03
2023-02-13T22:42:32.624Z,101115.22
2023-02-13T22:43:38.239Z,101110.00
2023-02-13T22:44:42.174Z,101111.84
2023-02-13T22:45:46.592Z,101104.75
2023-02-13T22:46:50.483Z,101104.84
2023-02-13T22:47:54.295Z,101105.84
2023-02-13T22:48:59.353Z,101104.84
2023-02-13T22:50:03.362Z,101100.44
2023-02-13T22:51:11.426Z,101103.81
2023-02-13T22:52:15.318Z,101100.38
2023-02-13T22:53:19.287Z,101103.84
2023-02-13T22:54:23.428Z,101107.44
2023-02-13T22:55:27.534Z,101102.25
2023-02-13T22:56:32.341Z,101099.56
2023-02-13T22:57:36.165Z,101101.25
2023-02-13T22:58:40.301Z,101098.56
2023-02-13T22:59:44.956Z,101102.94
2023-02-13T23:00:48.732Z,101108.16
2023-02-13T23:01:52.445Z,101105.56
2023-02-13T23:02:56.288Z,101108.25
2023-02-13T23:04:00.308Z,101104.78
2023-02-13T23:05:04.804Z,101113.78
2023-02-13T23:06:12.574Z,101102.28
2023-02-13T23:07:18.478Z,101104.84
2023-02-13T23:08:22.802Z,101113.56
2023-02-13T23:09:26.750Z,101115.31
2023-02-13T23:10:30.651Z,101106.63
2023-02-13T23:11:53.644Z,101112.16
2023-02-13T23:12:57.345Z,101104.19
2023-02-13T23:14:04.542Z,101105.00
2023-02-13T23:15:16.239Z,101105.00
2023-02-13T23:16:20.289Z,101111.13
2023-02-13T23:17:44.396Z,101107.63
2023-02-13T23:18:58.943Z,101110.25
2023-02-13T23:20:03.086Z,101112.06
2023-02-13T23:21:10.139Z,101104.97
2023-02-13T23:22:13.952Z,101108.44
2023-02-13T23:23:17.609Z,101099.69
2023-02-13T23:24:21.562Z,101103.28
2023-02-13T23:25:25.436Z,101104.25
2023-02-13T23:26:29.672Z,101098.09
2023-02-13T23:27:35.958Z,101097.09
2023-02-13T23:28:39.796Z,101100.78
2023-02-13T23:29:43.735Z,101103.41
2023-02-13T23:30:47.930Z,101096.38
2023-02-13T23:31:51.715Z,101101.56
2023-02-13T23:32:57.108Z,101097.28
2023-02-13T23:34:00.725Z,101103.28
2023-02-13T23:35:15.164Z,101102.44
2023-02-13T23:36:19.102Z,101097.28
2023-02-13T23:37:23.571Z,101089.41
2023-02-13T23:38:27.468Z,101092.81
2023-02-13T23:39:31.035Z,101090.09
2023-02-13T23:40:34.691Z,101092.69
2023-02-13T23:41:38.806Z,101084.88
2023-02-13T23:42:43.526Z,101084.00
2023-02-13T23:43:47.456Z,101084.91
2023-02-13T23:44:52.015Z,101082.28
2023-02-13T23:45:55.898Z,101079.63
2023-02-13T23:46:59.710Z,101078.69
2023-02-13T23:48:03.692Z,101085.59
2023-02-13T23:49:11.098Z,101078.69
2023-02-13T23:50:15.010Z,101082.22
2023-02-13T23:51:18.981Z,101080.72
2023-02-13T23:52:23.599Z,101077.25
2023-02-13T23:53:28.114Z,101077.22
2023-02-13T23:54:32.011Z,101082.56
2023-02-13T23:55:36.041Z,101082.53
2023-02-13T23:56:39.931Z,101070.13
2023-02-13T23:57:44.494Z,101079.72
2023-02-13T23:58:48.322Z,101078.06
2023-02-13T23:59:52.576Z,101082.53
